Time;durP1;ratioP1;P1;durP2;ratioP2;P2;SDS_P1;SDS_P2;PMS_P1;PMS_P2;Temp;Humidity;BMP_temperature;BMP_pressure;BME280_temperature;BME280_humidity;BME280_pressure;Samples;Min_cycle;Max_cycle;Signal;HPM_P1;HPM_P2
2022/10/07 00:00:45;;;;;;;13.75;8.30;;;;;;;11.78;82.51;99530.13;6231062;22;20015;-71
2022/10/07 00:03:09;;;;;;;12.95;8.50;;;;;;;11.78;82.48;99532.78;6230810;22;20051;-71
2022/10/07 00:05:34;;;;;;;12.80;7.97;;;;;;;11.77;82.46;99533.75;6230331;22;20037;-70
2022/10/07 00:07:58;;;;;;;11.73;8.07;;;;;;;11.74;82.04;99528.59;6235292;22;20019;-70
2022/10/07 00:10:23;;;;;;;11.32;8.00;;;;;;;11.70;82.11;99532.50;6230643;22;20123;-70
2022/10/07 00:12:48;;;;;;;10.55;7.32;;;;;;;11.63;82.15;99531.25;6230604;22;20114;-69
2022/10/07 00:15:14;;;;;;;10.38;7.40;;;;;;;11.57;82.22;99540.63;6230700;22;20020;-69
2022/10/07 00:17:38;;;;;;;11.68;7.78;;;;;;;11.51;82.37;99532.25;6229927;22;20030;-71
2022/10/07 00:20:04;;;;;;;10.85;7.78;;;;;;;11.43;82.67;99540.81;6231203;22;20086;-74
2022/10/07 00:22:29;;;;;;;11.27;7.70;;;;;;;11.35;82.76;99540.56;6232536;22;20020;-79
2022/10/07 00:24:54;;;;;;;12.93;7.88;;;;;;;11.27;82.18;99541.16;6232995;22;20439;-75
2022/10/07 00:27:19;;;;;;;11.52;8.05;;;;;;;11.17;82.76;99545.47;6234581;22;20045;-75
2022/10/07 00:29:43;;;;;;;13.15;7.85;;;;;;;11.10;83.38;99554.91;6232371;22;20016;-74
2022/10/07 00:32:08;;;;;;;10.80;8.23;;;;;;;11.06;83.46;99550.75;6230614;22;20015;-73
2022/10/07 00:34:32;;;;;;;10.13;7.57;;;;;;;10.99;83.60;99546.84;6231777;22;20477;-73
2022/10/07 00:36:57;;;;;;;10.25;7.80;;;;;;;10.94;83.69;99554.38;6203496;22;20020;-73
2022/10/07 00:39:22;;;;;;;10.43;7.53;;;;;;;10.90;84.63;99560.88;6230481;22;20015;-71
2022/10/07 00:41:51;;;;;;;12.82;7.65;;;;;;;10.86;84.71;99564.72;6230415;22;20039;-72
2022/10/07 00:44:30;;;;;;;12.05;7.65;;;;;;;10.82;84.29;99568.59;6230211;22;20015;-73
2022/10/07 00:47:02;;;;;;;10.20;7.40;;;;;;;10.73;85.35;99563.91;6203080;22;20042;-74
2022/10/07 00:49:28;;;;;;;10.35;7.75;;;;;;;10.71;84.90;99566.72;6228825;22;20016;-72
2022/10/07 00:51:52;;;;;;;12.38;7.50;;;;;;;10.76;84.70;99574.38;6229630;22;20023;-72
2022/10/07 00:54:19;;;;;;;12.15;7.63;;;;;;;10.82;85.17;99560.59;6231517;22;20099;-73
2022/10/07 00:56:47;;;;;;;10.30;7.15;;;;;;;10.83;84.26;99560.50;6228621;22;20027;-72
2022/10/07 00:59:14;;;;;;;9.30;6.20;;;;;;;10.81;84.64;99569.56;6202846;22;20011;-72
2022/10/07 01:01:40;;;;;;;9.40;7.22;;;;;;;10.78;83.95;99567.97;6230027;22;20022;-68
2022/10/07 01:04:09;;;;;;;9.30;7.15;;;;;;;10.81;84.21;99573.09;6202983;22;20022;-67
2022/10/07 01:06:37;;;;;;;10.68;7.45;;;;;;;10.81;84.31;99582.91;6229905;22;20035;-67
2022/10/07 01:09:04;;;;;;;12.93;7.93;;;;;;;10.82;84.26;99580.13;6229966;22;20047;-68
2022/10/07 01:11:57;;;;;;;14.45;8.60;;;;;;;10.89;83.94;99580.50;6228284;22;20459;-67
2022/10/07 01:14:41;;;;;;;10.40;6.72;;;;;;;10.88;84.46;99593.00;6202506;22;20012;-71
2022/10/07 01:17:25;;;;;;;10.77;6.35;;;;;;;10.88;83.75;99593.00;6202590;22;20019;-75
2022/10/07 01:20:19;;;;;;;11.60;7.77;;;;;;;10.86;83.63;99594.06;6230554;22;20093;-75
2022/10/07 01:22:50;;;;;;;10.40;6.85;;;;;;;10.78;83.55;99591.97;6209144;22;20027;-74
2022/10/07 01:25:31;;;;;;;9.32;6.68;;;;;;;10.81;83.48;99591.75;6229928;22;20065;-74
2022/10/07 01:28:20;;;;;;;11.05;6.85;;;;;;;10.79;83.69;99592.81;6230074;22;20012;-75
2022/10/07 01:30:54;;;;;;;9.77;7.03;;;;;;;10.71;83.63;99613.88;6229725;22;20459;-70
2022/10/07 01:33:26;;;;;;;10.40;7.00;;;;;;;10.64;83.87;99609.91;6228634;22;20019;-73
2022/10/07 01:35:56;;;;;;;11.65;7.05;;;;;;;10.61;84.11;99608.31;6228573;22;20015;-70
2022/10/07 01:38:25;;;;;;;8.82;6.90;;;;;;;10.61;84.50;99610.97;6228506;22;20023;-69
2022/10/07 01:41:13;;;;;;;11.68;6.95;;;;;;;10.67;84.76;99615.03;6228603;22;20343;-70
2022/10/07 01:43:40;;;;;;;16.13;7.32;;;;;;;10.55;84.09;99611.44;6228353;22;20026;-70
2022/10/07 01:46:08;;;;;;;9.27;6.60;;;;;;;10.51;84.31;99631.28;6228588;22;20039;-70
2022/10/07 01:48:33;;;;;;;11.05;7.43;;;;;;;10.47;84.53;99630.66;6228828;22;20351;-69
2022/10/07 01:51:00;;;;;;;14.15;7.50;;;;;;;10.43;85.38;99623.84;6229953;22;20046;-69
2022/10/07 01:53:32;;;;;;;9.63;6.80;;;;;;;10.42;84.77;99638.13;6229972;22;20090;-64
2022/10/07 01:56:09;;;;;;;8.95;6.75;;;;;;;10.40;85.06;99631.19;6227865;22;20022;-64
2022/10/07 01:58:55;;;;;;;11.80;7.25;;;;;;;10.36;85.41;99629.72;6228395;22;20016;-65
2022/10/07 02:01:37;;;;;;;16.50;7.05;;;;;;;10.34;85.37;99639.63;6230272;22;20180;-65
2022/10/07 02:04:28;;;;;;;10.60;7.45;;;;;;;10.32;85.46;99644.19;6228227;22;20439;-66
2022/10/07 02:07:16;;;;;;;11.23;7.57;;;;;;;10.25;85.82;99645.59;6229371;22;20011;-65
2022/10/07 02:10:05;;;;;;;13.70;7.53;;;;;;;10.18;85.74;99642.50;6202320;22;20103;-66
2022/10/07 02:12:46;;;;;;;11.35;7.13;;;;;;;10.26;86.36;99657.97;6136197;23;20044;-68
2022/10/07 02:15:16;;;;;;;9.57;7.25;;;;;;;10.32;86.59;99660.19;6086914;23;20100;-65
2022/10/07 02:17:50;;;;;;;10.40;6.75;;;;;;;10.41;86.48;99652.41;6086780;23;20021;-65
2022/10/07 02:20:18;;;;;;;10.55;6.97;;;;;;;10.49;86.07;99655.41;6136386;23;20013;-67
2022/10/07 02:22:45;;;;;;;10.15;7.43;;;;;;;10.54;85.89;99655.91;6086521;23;20021;-66
2022/10/07 02:25:12;;;;;;;8.73;6.75;;;;;;;10.55;85.55;99662.09;6086558;23;20460;-64
2022/10/07 02:27:39;;;;;;;11.57;8.05;;;;;;;10.47;84.63;99657.31;6087072;23;20534;-66
2022/10/07 02:30:10;;;;;;;11.77;6.18;;;;;;;10.48;84.50;99652.84;6086558;23;20480;-64
2022/10/07 02:32:38;;;;;;;13.25;7.07;;;;;;;10.45;84.48;99661.03;6086551;23;20496;-64
2022/10/07 02:35:09;;;;;;;10.15;6.53;;;;;;;10.51;85.07;99673.91;6111502;23;20609;-65
2022/10/07 02:37:36;;;;;;;10.77;6.78;;;;;;;10.55;85.33;99662.09;6111208;23;20021;-66
2022/10/07 02:40:04;;;;;;;13.02;7.45;;;;;;;10.60;84.67;99661.78;6136194;23;20120;-65
2022/10/07 02:42:58;;;;;;;10.98;6.97;;;;;;;10.76;84.54;99671.22;6111451;23;20468;-64
2022/10/07 02:45:53;;;;;;;9.00;6.85;;;;;;;10.82;83.76;99659.28;6114751;23;20025;-65
2022/10/07 02:48:38;;;;;;;9.60;6.75;;;;;;;10.87;83.35;99662.44;6091223;23;20013;-63
2022/10/07 02:51:07;;;;;;;9.10;5.50;;;;;;;10.84;83.29;99665.31;6229770;22;20458;-65
2022/10/07 02:53:33;;;;;;;10.82;6.43;;;;;;;10.79;82.64;99664.81;6203592;22;20354;-64
2022/10/07 02:56:01;;;;;;;7.90;5.47;;;;;;;10.80;83.02;99674.53;6227622;22;20572;-65
2022/10/07 02:58:27;;;;;;;9.00;6.13;;;;;;;10.77;82.77;99680.06;6227852;22;20015;-63
2022/10/07 03:00:57;;;;;;;8.73;6.13;;;;;;;10.76;82.83;99676.56;6227516;22;20017;-65
2022/10/07 03:03:23;;;;;;;9.18;6.75;;;;;;;10.68;82.32;99668.25;6227616;22;20011;-65
2022/10/07 03:06:07;;;;;;;12.20;6.13;;;;;;;10.62;82.62;99674.00;6229509;22;20447;-67
2022/10/07 03:08:33;;;;;;;8.95;6.32;;;;;;;10.52;83.02;99665.81;6227455;22;20050;-68
2022/10/07 03:10:59;;;;;;;8.88;6.07;;;;;;;10.46;82.58;99668.06;6195804;23;20106;-68
2022/10/07 03:13:24;;;;;;;9.52;5.82;;;;;;;10.39;83.09;99664.97;6170533;23;20056;-68
2022/10/07 03:15:53;;;;;;;12.65;6.13;;;;;;;10.33;83.76;99669.91;6170944;23;20541;-68
2022/10/07 03:18:25;;;;;;;9.40;5.70;;;;;;;10.27;83.22;99678.31;6146241;23;20020;-68
2022/10/07 03:20:56;;;;;;;8.23;5.93;;;;;;;10.22;83.96;99673.31;6170593;23;20012;-67
2022/10/07 03:23:22;;;;;;;7.88;5.22;;;;;;;10.14;83.94;99675.63;6120361;23;20024;-68
2022/10/07 03:25:52;;;;;;;9.27;6.10;;;;;;;10.12;83.84;99685.53;6170903;23;20086;-68
2022/10/07 03:28:22;;;;;;;7.90;5.50;;;;;;;10.08;84.06;99684.88;6180917;23;20019;-68
2022/10/07 03:30:48;;;;;;;9.20;5.80;;;;;;;10.02;84.45;99689.78;6188898;23;20020;-68
2022/10/07 03:33:13;;;;;;;16.48;5.68;;;;;;;10.01;84.94;99688.06;6175388;23;20019;-69
2022/10/07 03:35:38;;;;;;;15.93;6.95;;;;;;;9.98;84.98;99693.59;6171727;23;20475;-68
2022/10/07 03:38:07;;;;;;;8.02;5.68;;;;;;;9.95;84.71;99701.78;6171147;23;20510;-67
2022/10/07 03:40:31;;;;;;;8.15;5.25;;;;;;;9.93;84.60;99698.41;6146941;23;20222;-69
2022/10/07 03:42:57;;;;;;;10.90;6.07;;;;;;;9.90;85.05;99706.59;6225611;22;20045;-68
2022/10/07 03:45:21;;;;;;;8.98;5.43;;;;;;;9.89;85.07;99702.22;6227724;22;20442;-68
2022/10/07 03:47:46;;;;;;;7.72;5.10;;;;;;;9.87;85.18;99704.13;6227529;22;20015;-69
2022/10/07 03:50:11;;;;;;;9.18;5.50;;;;;;;9.84;84.85;99708.69;6227380;22;20020;-69
2022/10/07 03:52:35;;;;;;;11.10;5.30;;;;;;;9.80;84.93;99699.25;6227573;22;20011;-69
2022/10/07 03:55:00;;;;;;;8.18;5.00;;;;;;;9.80;85.23;99709.88;6231337;22;20022;-69
2022/10/07 04:00:09;;;;;;;8.25;5.57;;;;;;;9.82;85.50;99712.41;6231375;22;20343;-69
2022/10/07 04:02:39;;;;;;;8.32;5.40;;;;;;;9.82;85.53;99712.41;6233043;22;20481;-69
2022/10/07 04:05:04;;;;;;;6.85;4.90;;;;;;;9.82;84.89;99715.09;6230384;22;20502;-69
2022/10/07 04:07:28;;;;;;;7.25;5.22;;;;;;;9.83;85.28;99717.66;6206969;22;20121;-68
2022/10/07 04:09:53;;;;;;;9.75;5.78;;;;;;;9.83;85.34;99722.97;6232709;22;20016;-70
2022/10/07 04:12:18;;;;;;;11.93;5.13;;;;;;;9.83;85.07;99730.09;6243076;22;20447;-69
2022/10/07 04:14:42;;;;;;;7.75;5.75;;;;;;;9.83;85.07;99730.09;6246808;22;20015;-65
2022/10/07 04:17:07;;;;;;;7.35;5.28;;;;;;;9.86;84.93;99724.56;6237320;22;20038;-65
2022/10/07 04:19:32;;;;;;;10.60;5.40;;;;;;;9.98;85.05;99741.53;6229530;22;20050;-66
2022/10/07 04:21:59;;;;;;;7.90;6.45;;;;;;;10.15;85.81;99746.59;6230375;22;20047;-65
2022/10/07 04:24:24;;;;;;;7.97;5.55;;;;;;;10.37;85.54;99748.69;6229100;22;20023;-65
2022/10/07 04:26:49;;;;;;;7.18;5.45;;;;;;;10.58;84.17;99741.84;6228782;22;20026;-67
2022/10/07 04:29:14;;;;;;;9.10;5.00;;;;;;;10.81;82.38;99756.25;6228634;22;20042;-66
2022/10/07 04:31:39;;;;;;;6.75;4.93;;;;;;;11.05;81.33;99751.81;6230520;22;20019;-65
2022/10/07 04:34:04;;;;;;;6.72;5.00;;;;;;;11.31;80.19;99749.94;6230247;22;20042;-66
2022/10/07 04:36:33;;;;;;;8.50;4.78;;;;;;;11.54;78.82;99759.78;6228796;22;20020;-65
2022/10/07 04:39:05;;;;;;;10.00;4.75;;;;;;;11.80;77.74;99759.69;6228820;22;20019;-67
2022/10/07 04:41:33;;;;;;;6.68;4.53;;;;;;;12.03;76.54;99764.16;6228969;22;20406;-66
2022/10/07 04:43:59;;;;;;;6.53;4.97;;;;;;;12.27;75.83;99766.81;6228567;22;20043;-66
2022/10/07 04:46:28;;;;;;;8.38;5.18;;;;;;;12.45;73.90;99769.88;6228703;22;20019;-64
2022/10/07 04:49:06;;;;;;;7.78;4.97;;;;;;;12.63;73.39;99769.31;6228684;22;20042;-65
2022/10/07 04:51:31;;;;;;;8.30;4.00;;;;;;;12.79;72.13;99763.59;6230110;22;20024;-65
2022/10/07 04:53:57;;;;;;;5.63;4.30;;;;;;;13.05;71.87;99774.94;6229068;22;20024;-67
2022/10/07 04:56:35;;;;;;;7.57;4.93;;;;;;;13.29;70.08;99777.50;6229874;22;20038;-66
2022/10/07 04:59:02;;;;;;;11.02;5.35;;;;;;;13.62;69.59;99773.91;6203762;22;20019;-67
2022/10/07 05:01:27;;;;;;;7.60;5.20;;;;;;;14.12;68.98;99783.97;6228267;22;20153;-66
2022/10/07 05:03:53;;;;;;;8.30;5.07;;;;;;;14.61;66.92;99779.84;6230722;22;20065;-66
2022/10/07 05:06:17;;;;;;;6.85;5.10;;;;;;;14.95;65.37;99782.28;6203050;22;20019;-65
2022/10/07 05:08:43;;;;;;;10.27;5.00;;;;;;;14.98;64.74;99792.75;6228240;22;20046;-66
2022/10/07 05:11:10;;;;;;;6.97;4.90;;;;;;;14.83;64.56;99787.72;6228443;22;20019;-68
2022/10/07 05:13:41;;;;;;;8.40;4.53;;;;;;;14.62;64.34;99796.78;6179256;22;20023;-65
2022/10/07 05:16:08;;;;;;;6.28;4.93;;;;;;;14.47;65.29;99793.56;6228552;22;20027;-67
2022/10/07 05:18:34;;;;;;;5.85;4.28;;;;;;;14.34;65.74;99795.56;6202766;22;20019;-66
2022/10/07 05:21:07;;;;;;;8.18;4.95;;;;;;;14.23;65.78;99795.59;6203222;22;20016;-65
2022/10/07 05:23:36;;;;;;;7.25;4.78;;;;;;;14.03;65.85;99794.59;6203621;22;20023;-66
2022/10/07 05:26:06;;;;;;;9.27;4.30;;;;;;;13.96;66.51;99806.81;6203940;22;20098;-65
2022/10/07 05:28:34;;;;;;;7.85;4.32;;;;;;;13.82;66.46;99805.28;6229773;22;20023;-64
2022/10/07 05:31:04;;;;;;;9.70;4.68;;;;;;;13.75;67.20;99817.50;6232701;22;20016;-65
2022/10/07 05:33:30;;;;;;;6.15;4.03;;;;;;;13.69;67.50;99820.66;6230386;22;20094;-64
2022/10/07 05:35:56;;;;;;;6.22;4.00;;;;;;;13.64;67.27;99818.38;6205081;22;20018;-65
2022/10/07 05:38:21;;;;;;;6.50;4.40;;;;;;;13.48;67.42;99823.25;6232607;22;20023;-65
2022/10/07 05:40:54;;;;;;;8.68;4.03;;;;;;;13.57;67.90;99824.31;6229867;22;20088;-64
2022/10/07 05:43:19;;;;;;;7.18;3.50;;;;;;;13.85;67.44;99828.28;6231024;22;20094;-68
2022/10/07 05:45:46;;;;;;;10.70;3.90;;;;;;;14.75;65.57;99819.75;6229259;22;20108;-67
2022/10/07 05:48:11;;;;;;;4.70;3.35;;;;;;;15.60;62.03;99827.50;6228456;22;20508;-70
2022/10/07 05:50:35;;;;;;;8.93;4.53;;;;;;;16.29;59.28;99836.41;6233446;22;20794;-69
2022/10/07 05:53:00;;;;;;;6.43;3.90;;;;;;;16.42;58.66;99836.13;6208827;22;20022;-69
2022/10/07 05:55:25;;;;;;;7.30;4.03;;;;;;;16.27;58.78;99849.16;6177797;22;20019;-69
2022/10/07 05:57:49;;;;;;;8.52;4.20;;;;;;;16.29;58.33;99836.41;6202663;22;20011;-66
2022/10/07 06:00:14;;;;;;;8.23;3.13;;;;;;;16.52;58.19;99838.81;6177184;22;20447;-66
2022/10/07 06:02:44;;;;;;;6.47;3.88;;;;;;;16.94;56.37;99850.09;6228528;22;20026;-65
2022/10/07 06:05:09;;;;;;;8.50;4.13;;;;;;;17.81;54.92;99847.97;6229352;22;20019;-66
2022/10/07 06:07:35;;;;;;;5.40;3.50;;;;;;;17.98;53.50;99838.22;6230084;22;20016;-65
2022/10/07 06:15:29;;;;;;;6.82;3.13;;;;;;;18.85;50.93;99858.13;6203321;22;20102;-65
2022/10/07 06:17:54;;;;;;;7.85;3.30;;;;;;;19.46;49.48;99857.16;6229690;22;20626;-66
2022/10/07 06:20:20;;;;;;;6.03;3.55;;;;;;;20.16;47.40;99865.94;6230617;22;20035;-64
2022/10/07 06:22:46;;;;;;;5.88;3.65;;;;;;;21.05;45.48;99867.88;6229757;22;20020;-66
2022/10/07 06:25:12;;;;;;;16.27;4.10;;;;;;;21.16;43.88;99864.81;6234989;22;20023;-64
2022/10/07 06:27:38;;;;;;;10.40;5.25;;;;;;;21.36;44.24;99871.56;6233241;22;20461;-66
2022/10/07 06:30:03;;;;;;;4.80;3.40;;;;;;;21.50;43.63;99874.59;6202368;22;20015;-66
2022/10/07 06:32:29;;;;;;;8.82;3.10;;;;;;;21.18;43.84;99903.47;6227932;22;20026;-65
2022/10/07 06:34:55;;;;;;;16.65;4.25;;;;;;;20.36;44.67;99904.41;6228054;22;20023;-65
2022/10/07 06:37:21;;;;;;;3.78;2.28;;;;;;;19.46;46.45;99900.44;6229547;22;20325;-65
2022/10/07 06:39:46;;;;;;;6.07;3.10;;;;;;;18.56;48.68;99910.66;6228761;22;20090;-66
2022/10/07 06:42:10;;;;;;;5.55;2.80;;;;;;;17.87;50.67;99909.41;6202872;22;20043;-66
2022/10/07 06:44:35;;;;;;;4.90;2.83;;;;;;;17.32;51.72;99916.53;6229248;22;20102;-66
2022/10/07 06:47:00;;;;;;;8.07;3.38;;;;;;;16.84;53.26;99916.59;6230403;22;20012;-67
2022/10/07 06:49:24;;;;;;;6.75;2.80;;;;;;;16.38;53.89;99926.19;6203982;22;20019;-66
2022/10/07 06:51:49;;;;;;;5.32;3.10;;;;;;;16.09;54.94;99919.91;6229584;22;20099;-67
2022/10/07 06:54:14;;;;;;;6.97;2.97;;;;;;;15.82;55.52;99917.84;6228723;22;20015;-67
2022/10/07 06:56:39;;;;;;;7.13;3.10;;;;;;;15.70;55.97;99927.84;6228864;22;20039;-66
2022/10/07 06:59:04;;;;;;;13.30;3.38;;;;;;;15.59;55.86;99919.88;6228678;22;20026;-68
2022/10/07 07:01:43;;;;;;;5.55;3.35;;;;;;;15.54;56.22;99936.41;6228683;22;20042;-67
2022/10/07 07:04:08;;;;;;;6.05;2.67;;;;;;;15.46;56.39;99940.72;6228292;22;20015;-66
2022/10/07 07:06:35;;;;;;;6.93;3.08;;;;;;;15.36;56.88;99946.03;6229920;22;20444;-65
2022/10/07 07:09:03;;;;;;;5.35;2.85;;;;;;;15.23;57.28;99942.72;6228112;22;20019;-66
2022/10/07 07:11:39;;;;;;;11.63;2.50;;;;;;;15.15;56.80;99947.88;6229384;22;20011;-66
2022/10/07 07:14:27;;;;;;;5.90;2.70;;;;;;;15.10;57.56;99952.81;6229290;22;20043;-67
2022/10/07 07:16:59;;;;;;;14.35;3.92;;;;;;;15.15;57.42;99967.53;6227649;22;20020;-68
2022/10/07 07:19:24;;;;;;;4.65;2.83;;;;;;;15.25;56.64;99962.22;6227847;22;20024;-67
2022/10/07 07:21:49;;;;;;;7.30;2.92;;;;;;;15.21;56.20;99945.53;6227287;22;20047;-66
2022/10/07 07:24:15;;;;;;;12.25;3.65;;;;;;;15.14;56.93;99965.81;6227655;22;20020;-67
2022/10/07 07:26:41;;;;;;;13.15;3.95;;;;;;;15.08;56.70;99966.34;6227433;22;20454;-66
2022/10/07 07:29:10;;;;;;;14.63;3.38;;;;;;;15.10;57.11;99966.22;6226900;22;20481;-66
2022/10/07 07:31:40;;;;;;;6.93;3.05;;;;;;;15.08;57.95;99973.56;6228866;22;20141;-64
2022/10/07 07:34:10;;;;;;;4.03;2.53;;;;;;;15.05;57.09;99976.50;6230033;22;20466;-64
2022/10/07 07:36:35;;;;;;;7.15;3.13;;;;;;;14.90;57.02;99968.75;6230244;22;20098;-65
2022/10/07 07:39:05;;;;;;;10.43;3.58;;;;;;;14.83;57.58;99972.94;6229566;22;20028;-64
2022/10/07 07:41:34;;;;;;;7.95;2.95;;;;;;;14.72;57.41;99975.66;6232281;22;20071;-65
2022/10/07 07:44:02;;;;;;;5.93;2.40;;;;;;;14.67;57.69;99983.22;6230822;22;20019;-64
2022/10/07 07:46:32;;;;;;;23.17;4.05;;;;;;;14.60;57.97;99976.69;6233306;22;20081;-64
2022/10/07 07:48:57;;;;;;;6.07;3.38;;;;;;;14.56;58.18;99979.75;6231230;22;20022;-65
2022/10/07 07:51:23;;;;;;;11.13;3.60;;;;;;;14.44;58.21;99976.25;6229547;22;20022;-65
2022/10/07 07:53:51;;;;;;;3.75;2.50;;;;;;;14.38;58.47;99974.88;6231341;22;20181;-66
2022/10/07 07:56:17;;;;;;;6.75;3.33;;;;;;;14.35;58.93;99982.31;6231212;22;20071;-65
2022/10/07 07:58:42;;;;;;;5.38;3.10;;;;;;;14.31;58.94;99978.19;6229298;22;20518;-65
2022/10/07 08:01:14;;;;;;;5.25;2.80;;;;;;;14.33;58.71;99979.78;6230386;22;20042;-64
2022/10/07 08:03:42;;;;;;;8.90;3.25;;;;;;;14.27;58.60;99982.09;6230558;22;20125;-65
2022/10/07 08:06:08;;;;;;;5.38;2.63;;;;;;;14.27;58.87;99992.81;6231165;22;20015;-66
2022/10/07 08:08:33;;;;;;;4.35;2.70;;;;;;;14.31;58.70;99987.09;6229020;22;20061;-66
2022/10/07 08:11:27;;;;;;;5.75;2.67;;;;;;;14.47;58.32;99990.25;6227159;22;20450;-66
2022/10/07 08:13:54;;;;;;;6.70;2.83;;;;;;;14.39;58.07;99994.50;6223502;22;20015;-65
2022/10/07 08:16:21;;;;;;;5.95;2.65;;;;;;;14.40;58.15;99997.09;6228871;22;20058;-65
2022/10/07 08:18:49;;;;;;;7.38;2.80;;;;;;;14.46;58.20;99995.75;6228682;22;20023;-66
2022/10/07 08:21:17;;;;;;;6.82;3.13;;;;;;;14.49;58.07;99990.13;6230083;22;20342;-65
2022/10/07 08:23:46;;;;;;;4.57;2.38;;;;;;;14.43;57.54;99998.69;6228689;22;20019;-66
2022/10/07 08:26:12;;;;;;;4.07;2.28;;;;;;;14.36;57.57;100000.13;6229596;22;20090;-67
2022/10/07 08:28:39;;;;;;;9.35;2.40;;;;;;;14.36;58.05;100000.13;6231051;22;20069;-64
2022/10/07 08:31:09;;;;;;;3.85;2.40;;;;;;;14.33;57.84;100011.97;6232501;22;20015;-64
2022/10/07 08:33:38;;;;;;;6.40;3.22;;;;;;;14.34;58.27;100013.66;6230961;22;20023;-64
2022/10/07 08:36:05;;;;;;;13.18;3.60;;;;;;;14.33;58.00;100011.97;6232359;22;20016;-64
2022/10/07 08:38:31;;;;;;;6.20;2.75;;;;;;;14.37;58.15;100007.19;6230249;22;20019;-64
2022/10/07 08:41:13;;;;;;;12.25;4.53;;;;;;;14.39;58.11;100003.44;6228416;22;20042;-69
2022/10/07 08:43:46;;;;;;;12.98;3.33;;;;;;;14.70;58.04;100012.50;6230673;22;20046;-67
2022/10/07 08:46:15;;;;;;;9.30;3.25;;;;;;;14.87;57.02;100011.13;6230206;22;20043;-66
2022/10/07 08:48:44;;;;;;;8.48;2.80;;;;;;;14.99;56.40;100007.41;6230457;22;20355;-65
2022/10/07 08:51:19;;;;;;;4.80;2.53;;;;;;;15.17;55.84;100007.69;6229633;22;20015;-64
2022/10/07 08:53:49;;;;;;;6.85;2.70;;;;;;;15.38;55.38;100010.38;6228188;22;20016;-64
2022/10/07 08:56:22;;;;;;;8.27;3.95;;;;;;;15.73;54.29;100010.91;6229948;22;20020;-64
2022/10/07 08:58:55;;;;;;;7.22;2.67;;;;;;;16.32;53.33;100019.09;6236519;22;20031;-66
2022/10/07 09:01:53;;;;;;;8.75;3.25;;;;;;;17.06;51.58;100008.72;6228666;22;20023;-66
2022/10/07 09:04:40;;;;;;;7.18;3.30;;;;;;;17.60;50.67;100015.34;6229761;22;20016;-64
2022/10/07 09:07:17;;;;;;;8.10;3.03;;;;;;;17.88;48.96;100010.03;6228577;22;20037;-64
2022/10/07 09:09:52;;;;;;;6.20;2.53;;;;;;;18.29;47.35;100014.97;6229552;22;20041;-65
2022/10/07 09:12:21;;;;;;;8.00;2.95;;;;;;;18.49;46.74;100019.28;6230300;22;20015;-64
2022/10/07 09:14:49;;;;;;;9.43;3.45;;;;;;;18.45;46.00;100014.34;6229934;22;20355;-65
2022/10/07 09:17:34;;;;;;;7.57;3.00;;;;;;;18.38;46.31;100015.94;6235625;22;20103;-65
2022/10/07 09:20:05;;;;;;;10.10;3.65;;;;;;;17.93;47.31;100019.41;6238965;22;20054;-68
2022/10/07 09:22:33;;;;;;;14.88;3.22;;;;;;;17.60;47.95;100028.00;6229141;22;20023;-66
2022/10/07 09:25:16;;;;;;;9.50;3.85;;;;;;;17.35;48.84;100021.34;6228222;22;20420;-66
2022/10/07 09:27:41;;;;;;;9.20;3.30;;;;;;;16.92;49.34;100029.88;6229962;22;20366;-65
2022/10/07 09:30:11;;;;;;;5.78;3.00;;;;;;;16.88;49.45;100023.06;6230001;22;20449;-65
2022/10/07 09:32:38;;;;;;;9.85;2.70;;;;;;;17.07;48.76;100023.06;6230024;22;20462;-65
2022/10/07 09:35:04;;;;;;;6.40;2.70;;;;;;;17.16;48.15;100024.88;6229801;22;20016;-64
2022/10/07 09:37:29;;;;;;;6.97;2.90;;;;;;;17.08;47.82;100018.50;6228119;22;20401;-65
2022/10/07 09:40:15;;;;;;;8.98;3.10;;;;;;;16.88;47.73;100028.44;6230428;22;20286;-64
2022/10/07 09:42:44;;;;;;;37.97;5.03;;;;;;;16.61;48.71;100021.84;6234324;22;20016;-64
2022/10/07 09:45:25;;;;;;;6.57;2.15;;;;;;;16.64;50.04;100031.53;6230852;22;20019;-65
2022/10/07 09:47:52;;;;;;;4.25;2.38;;;;;;;16.51;48.84;100020.13;6228909;22;20358;-65
2022/10/07 09:50:36;;;;;;;11.77;3.90;;;;;;;16.61;48.73;100027.22;6229343;22;20065;-65
2022/10/07 09:53:01;;;;;;;6.57;2.78;;;;;;;16.41;49.34;100027.31;6235556;22;20098;-64
2022/10/07 09:55:39;;;;;;;11.82;3.03;;;;;;;16.45;50.02;100034.13;6228148;22;20019;-65
2022/10/07 09:58:15;;;;;;;9.23;2.58;;;;;;;16.38;49.45;100044.59;6230926;22;20019;-66
2022/10/07 10:00:44;;;;;;;6.28;2.85;;;;;;;16.45;49.70;100039.53;6230218;22;20015;-64
2022/10/07 10:03:09;;;;;;;9.82;2.45;;;;;;;16.57;48.93;100043.81;6230699;22;20022;-64
2022/10/07 10:05:40;;;;;;;3.80;2.63;;;;;;;16.78;48.41;100041.91;6229715;22;20050;-64
2022/10/07 10:08:20;;;;;;;5.68;2.13;;;;;;;16.82;48.35;100045.13;6230012;22;20042;-64
2022/10/07 10:11:00;;;;;;;4.40;2.47;;;;;;;16.83;48.18;100028.00;6229826;22;20027;-73
2022/10/07 10:13:33;;;;;;;8.70;2.70;;;;;;;16.90;48.20;100029.16;6229398;22;20012;-74
2022/10/07 10:15:58;;;;;;;5.78;2.30;;;;;;;16.88;47.83;100036.50;6229838;22;20026;-69
2022/10/07 10:18:38;;;;;;;8.20;3.03;;;;;;;16.83;48.02;100036.06;6230956;22;20025;-71
2022/10/07 10:21:26;;;;;;;3.92;2.72;;;;;;;16.78;49.37;100035.66;6228537;22;20012;-70
2022/10/07 10:23:54;;;;;;;6.55;3.67;;;;;;;16.80;49.10;100039.91;6231264;22;20629;-72
2022/10/07 10:26:36;;;;;;;6.70;2.92;;;;;;;17.05;48.27;100030.41;6232196;22;20020;-73
2022/10/07 10:29:16;;;;;;;6.35;2.75;;;;;;;17.21;48.19;100024.47;6231868;22;20458;-72
2022/10/07 10:31:55;;;;;;;7.88;3.60;;;;;;;17.27;48.39;100024.75;6204310;22;20016;-72
2022/10/07 10:34:50;;;;;;;5.90;2.83;;;;;;;17.40;48.39;100021.75;6240291;22;20441;-70
2022/10/07 10:37:20;;;;;;;6.13;3.10;;;;;;;17.46;47.55;100021.19;6238087;22;20069;-70
2022/10/07 10:40:03;;;;;;;9.90;3.20;;;;;;;17.39;47.88;100020.03;6230113;22;20015;-72
2022/10/07 10:42:47;;;;;;;6.03;3.13;;;;;;;17.51;48.31;100024.28;6202778;22;20016;-73
2022/10/07 10:45:12;;;;;;;9.88;2.55;;;;;;;17.47;47.46;100022.03;6228088;22;20017;-71
2022/10/07 10:47:47;;;;;;;9.55;3.47;;;;;;;17.54;46.57;100018.63;6227683;22;20022;-74
2022/10/07 10:50:22;;;;;;;11.32;3.80;;;;;;;17.30;47.32;100021.78;6227099;22;20022;-73
2022/10/07 10:53:06;;;;;;;7.50;2.47;;;;;;;17.30;47.59;100024.47;6229156;22;20020;-73
2022/10/07 10:55:32;;;;;;;6.65;3.22;;;;;;;17.06;48.40;100018.66;6229716;22;20063;-71
2022/10/07 10:58:05;;;;;;;5.13;2.40;;;;;;;16.97;49.02;100012.28;6203885;22;20019;-74
2022/10/07 11:01:10;;;;;;;6.70;2.90;;;;;;;16.93;48.99;100024.31;6202933;22;20099;-76
2022/10/07 11:04:15;;;;;;;8.50;3.80;;;;;;;16.83;49.39;100014.53;6177255;22;20676;-76
2022/10/07 11:06:44;;;;;;;6.60;2.95;;;;;;;16.68;49.07;100017.66;6229382;22;20069;-72
2022/10/07 11:09:28;;;;;;;5.30;3.00;;;;;;;16.80;49.59;100018.38;6231990;22;20050;-74
2022/10/07 11:11:54;;;;;;;7.50;3.22;;;;;;;16.76;48.70;100010.72;6230377;22;20023;-73
2022/10/07 11:14:22;;;;;;;8.65;2.33;;;;;;;16.76;49.16;100025.03;6203551;22;20012;-74
2022/10/07 11:17:03;;;;;;;6.72;2.47;;;;;;;16.81;48.92;100030.00;6203382;22;20016;-74
2022/10/07 11:19:37;;;;;;;5.93;3.35;;;;;;;16.69;49.30;100026.59;6231980;22;20102;-71
2022/10/07 11:22:02;;;;;;;10.60;2.65;;;;;;;16.67;48.48;100028.56;6242356;22;20046;-74
2022/10/07 11:24:46;;;;;;;8.48;3.00;;;;;;;16.84;48.83;100044.00;6231641;22;20024;-67
2022/10/07 11:27:26;;;;;;;12.02;2.80;;;;;;;16.77;48.05;100045.56;6231395;22;20015;-68
2022/10/07 11:30:06;;;;;;;11.32;3.70;;;;;;;16.74;49.07;100035.06;6229002;22;20100;-68
2022/10/07 11:32:43;;;;;;;9.70;3.20;;;;;;;16.76;49.07;100045.72;6230454;22;20069;-67
2022/10/07 11:35:36;;;;;;;6.55;3.03;;;;;;;16.76;49.55;100049.25;6233572;22;20015;-70
2022/10/07 11:38:13;;;;;;;6.70;2.78;;;;;;;16.61;48.69;100050.59;6228438;22;20422;-70
2022/10/07 11:40:59;;;;;;;8.18;3.30;;;;;;;16.50;49.22;100050.72;6238836;22;20386;-68
2022/10/07 11:43:37;;;;;;;10.30;3.47;;;;;;;16.20;49.70;100055.16;6228210;22;20461;-68
2022/10/07 11:46:19;;;;;;;12.00;3.15;;;;;;;16.17;49.87;100050.03;6228452;22;20061;-71
2022/10/07 11:49:07;;;;;;;8.85;2.80;;;;;;;16.01;50.16;100049.69;6230349;22;20050;-70
2022/10/07 11:51:38;;;;;;;7.25;3.13;;;;;;;15.92;50.55;100053.16;6230589;22;20400;-68
2022/10/07 11:54:06;;;;;;;7.28;3.10;;;;;;;15.87;50.51;100061.66;6229148;22;20098;-73